createdAt,value
2022-08-22T00:03:07.261Z,16.71
2022-08-22T00:05:28.745Z,16.20
2022-08-22T00:08:13.302Z,16.20
2022-08-22T00:13:48.641Z,16.03
2022-08-22T00:19:32.953Z,15.93
2022-08-22T00:25:08.291Z,15.71
2022-08-22T00:30:52.568Z,15.86
2022-08-22T00:33:40.010Z,15.85
2022-08-22T00:39:15.354Z,15.80
2022-08-22T00:44:50.923Z,15.74
2022-08-22T00:50:26.325Z,15.71
2022-08-22T00:56:01.673Z,15.64
2022-08-22T00:58:46.204Z,15.61
2022-08-22T01:04:21.984Z,15.61
2022-08-22T01:09:57.445Z,15.53
2022-08-22T01:15:32.820Z,15.45
2022-08-22T01:18:17.371Z,15.50
2022-08-22T01:23:52.710Z,15.46
2022-08-22T01:29:28.348Z,15.41
2022-08-22T01:35:04.021Z,15.16
2022-08-22T01:43:59.126Z,15.33
2022-08-22T01:49:14.639Z,15.24
2022-08-22T01:54:49.917Z,15.25
2022-08-22T02:00:35.184Z,15.25
2022-08-22T02:06:09.535Z,15.02
2022-08-22T02:09:03.018Z,14.95
2022-08-22T02:14:38.261Z,14.96
2022-08-22T02:20:13.596Z,15.12
2022-08-22T02:25:48.866Z,14.95
2022-08-22T02:28:33.545Z,14.97
2022-08-22T02:34:08.906Z,14.98
2022-08-22T02:39:45.075Z,15.00
2022-08-22T02:45:29.466Z,15.00
2022-08-22T02:48:14.037Z,14.95
2022-08-22T02:53:49.407Z,14.85
2022-08-22T02:59:25.164Z,14.75
2022-08-22T03:05:00.505Z,14.80
2022-08-22T03:10:35.839Z,14.79
2022-08-22T03:16:11.095Z,14.81
2022-08-22T03:18:55.618Z,14.87
2022-08-22T03:24:30.950Z,14.92
2022-08-22T03:30:06.194Z,14.93
2022-08-22T03:35:42.426Z,14.97
2022-08-22T03:38:26.927Z,14.92
2022-08-22T03:44:02.570Z,14.72
2022-08-22T03:49:37.867Z,14.66
2022-08-22T03:55:13.695Z,14.62
2022-08-22T04:00:49.079Z,14.68
2022-08-22T04:06:28.000Z,14.67
2022-08-22T04:09:12.576Z,14.71
2022-08-22T04:11:59.377Z,14.68
2022-08-22T04:17:34.715Z,14.64
2022-08-22T04:20:19.256Z,14.58
2022-08-22T04:25:54.588Z,14.49
2022-08-22T04:28:42.447Z,14.51
2022-08-22T04:34:17.954Z,14.58
2022-08-22T04:39:53.950Z,14.68
2022-08-22T04:45:29.402Z,14.71
2022-08-22T04:48:13.930Z,14.76
2022-08-22T04:53:49.147Z,14.76
2022-08-22T04:59:24.462Z,14.81
2022-08-22T05:07:51.749Z,14.97
2022-08-22T05:10:39.285Z,15.05
2022-08-22T05:16:14.957Z,15.28
2022-08-22T05:18:59.426Z,15.38
2022-08-22T05:24:34.815Z,15.44
2022-08-22T05:30:10.176Z,15.57
2022-08-22T05:35:50.138Z,15.61
2022-08-22T05:38:39.954Z,15.71
2022-08-22T05:44:15.197Z,15.92
2022-08-22T05:49:52.366Z,16.03
2022-08-22T05:55:36.685Z,16.15
2022-08-22T05:58:21.202Z,16.17
2022-08-22T06:03:56.461Z,16.40
2022-08-22T06:09:35.631Z,16.69
2022-08-22T06:15:11.984Z,16.84
2022-08-22T06:23:38.775Z,16.99
2022-08-22T06:29:14.092Z,17.18
2022-08-22T06:37:40.146Z,17.42
2022-08-22T06:40:25.751Z,17.52
2022-08-22T06:46:01.182Z,17.70
2022-08-22T06:48:45.761Z,17.81
2022-08-22T06:54:21.021Z,18.03
2022-08-22T07:02:47.112Z,18.29
2022-08-22T07:08:22.518Z,18.51
2022-08-22T07:13:57.829Z,18.65
2022-08-22T07:19:33.338Z,18.79
2022-08-22T07:25:12.622Z,18.93
2022-08-22T07:30:47.939Z,18.97
2022-08-22T07:36:23.387Z,19.13
2022-08-22T07:39:07.899Z,19.26
2022-08-22T07:44:46.454Z,19.51
2022-08-22T07:50:21.788Z,19.70
2022-08-22T07:55:57.075Z,19.97
2022-08-22T07:58:50.577Z,20.08
2022-08-22T08:04:26.409Z,20.33
2022-08-22T08:10:01.739Z,20.53
2022-08-22T08:15:37.137Z,20.72
2022-08-22T08:18:23.771Z,20.77
2022-08-22T08:23:59.104Z,20.86
2022-08-22T08:29:34.705Z,21.03
2022-08-22T08:35:10.024Z,21.23
2022-08-22T08:40:45.517Z,21.37
2022-08-22T08:43:36.765Z,21.36
2022-08-22T08:49:12.077Z,21.48
2022-08-22T08:51:57.562Z,21.62
2022-08-22T08:57:33.042Z,21.75
2022-08-22T09:00:17.645Z,21.87
2022-08-22T09:05:53.059Z,22.04
2022-08-22T09:08:38.253Z,22.17
2022-08-22T09:14:14.100Z,22.37
2022-08-22T09:19:49.790Z,22.64
2022-08-22T09:25:25.115Z,22.93
2022-08-22T09:28:09.623Z,23.13
2022-08-22T09:33:49.059Z,23.49
2022-08-22T09:39:27.034Z,23.58
2022-08-22T09:45:02.621Z,23.58
2022-08-22T09:50:41.247Z,23.81
2022-08-22T09:56:16.701Z,23.87
2022-08-22T09:59:01.220Z,24.13
2022-08-22T10:04:37.003Z,24.36
2022-08-22T10:10:14.875Z,24.63
2022-08-22T10:15:50.250Z,24.54
2022-08-22T10:18:34.754Z,24.67
2022-08-22T10:24:10.055Z,24.67
2022-08-22T10:29:46.567Z,24.74
2022-08-22T10:35:21.831Z,24.75
2022-08-22T10:38:10.680Z,24.94
2022-08-22T10:43:46.104Z,24.90
2022-08-22T10:49:22.594Z,24.76
2022-08-22T10:55:09.934Z,25.29
2022-08-22T11:00:46.013Z,25.19
2022-08-22T11:06:22.138Z,25.62
2022-08-22T11:09:06.609Z,25.49
2022-08-22T11:14:41.856Z,25.96
2022-08-22T11:20:20.052Z,25.68
2022-08-22T11:25:58.014Z,25.69
2022-08-22T11:28:42.588Z,25.84
2022-08-22T11:34:20.601Z,25.64
2022-08-22T11:39:56.048Z,25.38
2022-08-22T11:45:31.458Z,25.27
2022-08-22T11:48:16.059Z,25.31
2022-08-22T11:53:51.446Z,25.68
2022-08-22T11:59:27.245Z,26.40
2022-08-22T12:05:04.173Z,26.04
2022-08-22T12:10:39.532Z,26.34
2022-08-22T12:16:14.880Z,26.18
2022-08-22T12:18:59.318Z,26.13
2022-08-22T12:24:34.625Z,26.21
2022-08-22T12:30:13.829Z,26.31
2022-08-22T12:38:40.505Z,27.35
2022-08-22T12:44:17.498Z,27.01
2022-08-22T12:49:54.657Z,26.58
2022-08-22T12:55:29.975Z,26.60
2022-08-22T12:58:14.457Z,27.03
2022-08-22T13:03:55.096Z,27.07
2022-08-22T13:09:30.619Z,26.79
2022-08-22T13:12:15.500Z,26.86
2022-08-22T13:17:55.430Z,26.96
2022-08-22T13:20:40.441Z,26.98
2022-08-22T13:26:33.035Z,27.18
2022-08-22T13:29:26.624Z,27.33
2022-08-22T13:34:58.865Z,27.05
2022-08-22T13:40:34.657Z,26.71
2022-08-22T13:46:12.920Z,27.26
2022-08-22T13:49:00.783Z,27.29
2022-08-22T13:54:40.143Z,27.03
2022-08-22T14:00:28.595Z,26.86
2022-08-22T14:06:32.627Z,27.15
2022-08-22T14:08:53.617Z,27.18
2022-08-22T14:17:19.646Z,27.64
2022-08-22T14:20:06.879Z,27.33
2022-08-22T14:25:52.074Z,27.08
2022-08-22T14:28:38.079Z,27.07
2022-08-22T14:34:13.460Z,27.40
2022-08-22T14:39:48.961Z,28.30
2022-08-22T14:45:25.249Z,27.62
2022-08-22T14:48:29.397Z,27.30
2022-08-22T14:53:54.320Z,26.66
2022-08-22T14:59:30.184Z,26.22
2022-08-22T15:05:06.516Z,26.34
2022-08-22T15:10:42.623Z,26.41
2022-08-22T15:16:17.895Z,26.58
2022-08-22T15:19:02.385Z,26.53
2022-08-22T15:24:39.004Z,26.64
2022-08-22T15:30:22.277Z,31.58
2022-08-22T15:35:57.688Z,30.91
2022-08-22T15:38:48.014Z,29.67
2022-08-22T15:44:30.991Z,28.12
2022-08-22T15:50:07.917Z,27.60
2022-08-22T15:55:43.415Z,26.81
2022-08-22T15:58:28.027Z,26.60
2022-08-22T16:04:03.292Z,26.16
2022-08-22T16:09:38.442Z,25.71
2022-08-22T16:15:13.711Z,25.59
2022-08-22T16:20:51.149Z,25.27
2022-08-22T16:26:26.447Z,25.08
2022-08-22T16:29:15.035Z,24.96
2022-08-22T16:34:55.232Z,24.93
2022-08-22T16:40:30.675Z,24.81
2022-08-22T16:46:06.052Z,24.66
2022-08-22T16:48:50.539Z,24.59
2022-08-22T16:54:26.354Z,24.49
2022-08-22T17:00:01.823Z,24.21
2022-08-22T17:05:37.903Z,24.16
2022-08-22T17:11:13.215Z,23.96
2022-08-22T17:19:42.245Z,23.75
2022-08-22T17:25:17.585Z,23.68
2022-08-22T17:30:53.306Z,23.67
2022-08-22T17:36:28.656Z,23.58
2022-08-22T17:39:13.205Z,23.55
2022-08-22T17:44:48.596Z,23.43
2022-08-22T17:50:23.869Z,23.35
2022-08-22T17:55:59.175Z,23.21
2022-08-22T17:58:44.312Z,23.14
2022-08-22T18:04:19.694Z,23.02
2022-08-22T18:09:54.952Z,22.93
2022-08-22T18:15:30.245Z,22.87
2022-08-22T18:18:14.786Z,22.82
2022-08-22T18:23:50.085Z,22.70
2022-08-22T18:29:25.967Z,22.54
2022-08-22T18:35:02.700Z,22.53
2022-08-22T18:40:49.677Z,22.38
2022-08-22T18:46:22.516Z,22.13
2022-08-22T18:49:15.806Z,22.03
2022-08-22T18:54:51.439Z,21.90
2022-08-22T19:00:26.897Z,21.74
2022-08-22T19:06:02.224Z,21.65
2022-08-22T19:08:49.304Z,21.64
2022-08-22T19:14:31.085Z,21.54
2022-08-22T19:22:57.553Z,21.40
2022-08-22T19:28:33.853Z,21.35
2022-08-22T19:34:09.212Z,21.25
2022-08-22T19:39:44.682Z,21.17
2022-08-22T19:45:20.097Z,21.11
2022-08-22T19:50:55.376Z,21.06
2022-08-22T19:56:30.610Z,20.95
2022-08-22T19:59:15.133Z,20.94
2022-08-22T20:04:50.483Z,20.88
2022-08-22T20:10:25.854Z,20.77
2022-08-22T20:19:00.180Z,20.66
2022-08-22T20:24:39.719Z,20.63
2022-08-22T20:30:15.194Z,20.52
2022-08-22T20:35:51.338Z,20.48
2022-08-22T20:38:35.873Z,20.44
2022-08-22T20:44:11.173Z,20.40
2022-08-22T20:49:46.470Z,20.38
2022-08-22T20:55:21.772Z,20.28
2022-08-22T20:58:09.469Z,20.24
2022-08-22T21:03:44.740Z,20.20
2022-08-22T21:09:20.231Z,20.21
2022-08-22T21:14:55.644Z,20.12
2022-08-22T21:20:31.093Z,20.02
2022-08-22T21:26:06.630Z,19.89
2022-08-22T21:28:51.153Z,19.88
2022-08-22T21:34:26.528Z,19.85
2022-08-22T21:40:01.847Z,19.82
2022-08-22T21:45:37.217Z,19.80
2022-08-22T21:48:21.727Z,19.78
2022-08-22T21:54:17.485Z,19.80
2022-08-22T21:59:50.809Z,19.77
2022-08-22T22:05:25.525Z,19.75
2022-08-22T22:08:09.955Z,19.69
2022-08-22T22:13:45.198Z,19.69
2022-08-22T22:19:20.512Z,19.69
2022-08-22T22:24:55.751Z,19.63
2022-08-22T22:30:30.990Z,19.47
2022-08-22T22:36:06.307Z,19.41
2022-08-22T22:38:51.762Z,19.37
2022-08-22T22:44:27.445Z,19.27
2022-08-22T22:50:02.713Z,19.28
2022-08-22T22:55:42.488Z,19.29
2022-08-22T22:58:35.698Z,19.28
2022-08-22T23:04:11.029Z,19.12
2022-08-22T23:09:46.449Z,19.04
2022-08-22T23:15:22.252Z,19.08
2022-08-22T23:20:57.546Z,18.97
2022-08-22T23:26:32.880Z,18.85
2022-08-22T23:29:17.429Z,18.80
2022-08-22T23:34:52.905Z,18.77
2022-08-22T23:40:28.433Z,18.77
2022-08-22T23:46:03.918Z,18.70
2022-08-22T23:48:48.400Z,18.64
2022-08-22T23:54:23.764Z,18.54
2022-08-22T23:59:59.102Z,18.51
